Startpagina
METAR-TAF:

METAR-TAF

Vliegvelden :

Elsenborn

Bütgenbach, België

breedte: 50-28N, lengte: 006-11E, hoogte: 564 m

Actueel weer

Dit bericht is 26 minuten geleden gemaakt, om 19:25 UTC
Wind 3 kt uit het zuidwesten
Temperatuur 3°C
Vochtigheid 100%
Druk 1024 hPa
Zicht 10 km of meer

METAR: EBLB 171925Z AUTO 22003KT 9999 OVC004/// 03/03 Q1024 YLO

Tijdstip: 20:51 (19:51 UTC)


TAF: ontbreekt

Waarnemingen en weersverwachtingen van meer dan 4000 vliegvelden (METAR en TAF).

De beschikbare stations zijn de gele en rode punten op de kaart.

Ga met uw muis naar het station om de naam te zien.

Klik dan om waarnemingen en weersverwachtingen te zien.

kaart wijzigen: klik op de groene knoppen met een zwart kruis om in te zoomen, op de groene knop met een streepje om uit te zoomen of op de groene pijlen voor aangrenzende kaarten.


METAR-TAF: